• Join FlightAware (Why Join?)
  • Login
  • US Flag 
09:44PM EST


 

Airport Tracker/Info


-or-


 

Live Flight TrackerFlight Track Log ✈ GJS3618 ✈ 30-Aug-2013 ✈ KOMA - KDEN

Flight Track Log - Related Links

Times and Time Zones

All times are in EDT time to prevent confusion due to time zone crossing. See the GJS3618 flight status page for this flight to view local times or setup timezone preferences in your user account.

Time Position Orientation Groundspeed Altitude Reporting Facility
EDT Latitude Longitude Course Direction KTS MPH feet Rate Location/Type
07:25AM 41.2950 -95.8919 278° West 154 177 1,400  Level Minneapolis Center
07:26AM 41.2506 -95.8858 174° South 193 222 2,700 1,620 Climbing Minneapolis Center
07:27AM 41.2056 -95.9372 221° Southwest 221 254 4,700 1,920 Climbing Minneapolis Center
07:28AM 41.3167 -96.4274 270° West  Level FlightAware Approximate
07:28AM 41.1942 -96.0306 261° West 259 298 6,800  Level Minneapolis Center
07:29AM 41.3167 -96.5637 270° West  Level FlightAware Approximate
07:29AM 41.2014 -96.1347 275° West 277 319 9,100  Level Minneapolis Center
07:30AM 41.3233 -96.6994 278° West  Level FlightAware Approximate
07:30AM 41.2122 -96.2453 277° West 294 338 11,200  Level Minneapolis Center
07:31AM 41.2131 -96.3714 271° West 338 389 12,500 1,560 Climbing Minneapolis Center
07:32AM 41.2028 -96.5025 264° West 356 410 14,400 2,040 Climbing Minneapolis Center
07:33AM 41.1917 -96.6350 264° West 359 413 16,700 1,800 Climbing Minneapolis Center
07:34AM 41.1800 -96.7681 263° West 362 417 18,100 1,320 Climbing Minneapolis Center
07:35AM 41.1683 -96.9083 264° West 380 437 19,500 1,320 Climbing Minneapolis Center
07:36AM 41.1556 -97.0517 263° West 388 447 20,900 1,320 Climbing Minneapolis Center
07:37AM 41.1442 -97.1978 264° West 396 456 22,300 1,320 Climbing Minneapolis Center
07:38AM 41.1300 -97.3447 263° West 401 461 23,600 1,080 Climbing Minneapolis Center
07:39AM 41.1147 -97.5150 263° West 408 470 24,600 900 Climbing Minneapolis Center
07:40AM 41.1011 -97.6714 263° West 421 484 25,500 1,020 Climbing Minneapolis Center
07:41AM 41.0864 -97.8286 263° West 427 491 26,700 1,140 Climbing Minneapolis Center
07:42AM 41.0714 -97.9839 263° West 426 490 27,900 1,080 Climbing Minneapolis Center
07:43AM 41.0567 -98.1406 263° West 427 491 29,000 960 Climbing Minneapolis Center
07:44AM 41.0411 -98.2969 263° West 427 491 29,900 780 Climbing Minneapolis Center
07:45AM 41.0247 -98.4653 263° West 433 498 30,700 720 Climbing Minneapolis Center
07:46AM 41.0075 -98.6244 262° West 436 502 31,400 720 Climbing Minneapolis Center
07:47AM 40.9900 -98.7867 262° West 442 509 32,200 780 Climbing Minneapolis Center
07:48AM 40.9733 -98.9481 262° West 444 511 33,000 780 Climbing Minneapolis Center
07:49AM 40.9592 -99.1086 263° West 441 507 33,800 780 Climbing Minneapolis Center
07:50AM 40.9425 -99.2706 262° West 436 502 34,600 780 Climbing Minneapolis Center
07:51AM 40.9258 -99.4289 262° West 434 499 35,400 780 Climbing Minneapolis Center
07:52AM 40.9086 -99.5853 262° West 431 496 36,200 780 Climbing Minneapolis Center
07:53AM 40.8917 -99.7411 262° West 429 494 37,000 780 Climbing Minneapolis Center
07:54AM 40.8758 -99.8953 262° West 425 489 37,900 480 Climbing Minneapolis Center
07:55AM 40.8589 -100.0469 262° West 419 482 38,000  Climbing Minneapolis Center
07:56AM 40.8411 -100.2008 261° West 421 484 38,000  Level Minneapolis Center
07:57AM 40.8239 -100.3528 262° West 422 486 38,000  Level Minneapolis Center
07:58AM 40.8028 -100.5331 261° West 417 480 38,000  Level Minneapolis Center
07:59AM 40.7761 -100.6861 257° West 424 488 38,000  Level Denver Center
08:00AM 40.7533 -100.8444 259° West 439 505 38,000  Level Denver Center
08:01AM 40.7272 -101.0142 259° West 426 490 38,000  Level Denver Center
08:02AM 40.7031 -101.1569 257° West 419 482 38,000  Level Denver Center
08:03AM 40.6778 -101.3011 257° West 421 484 38,000  Level Denver Center
08:04AM 40.6489 -101.4703 257° West 423 487 38,000  Level Denver Center
08:05AM 40.6228 -101.6161 257° West 425 489 38,000  Level Denver Center
08:06AM 40.5978 -101.7619 257° West 427 491 38,000  Level Denver Center
08:07AM 40.5714 -101.9064 257° West 426 490 38,000  Level Denver Center
08:08AM 40.5381 -102.0769 256° West 430 495 38,000  Level Denver Center
08:09AM 40.5122 -102.2208 257° West 425 489 38,000  Level Denver Center
08:10AM 40.4856 -102.3650 256° West 425 489 38,000 -540 Level Denver Center
08:11AM 40.4547 -102.5328 256° West 424 488 37,000 -1,560 Descending Denver Center
08:12AM 40.4267 -102.6831 256° West 434 499 34,900 -2,160 Descending Denver Center
08:13AM 40.3978 -102.8331 256° West 429 494 32,700 -2,280 Descending Denver Center
08:14AM 40.3703 -102.9794 256° West 417 480 30,400 -2,340 Descending Denver Center
08:15AM 40.3414 -103.1264 256° West 418 481 28,100 -2,340 Descending Denver Center
08:16AM 40.3153 -103.2686 257° West 406 467 25,800 -2,340 Descending Denver Center
08:17AM 40.2872 -103.4061 255° West 394 453 23,500 -2,280 Descending Denver Center
08:18AM 40.2625 -103.5378 256° West 380 437 21,300 -2,220 Descending Denver Center
08:19AM 40.2381 -103.6639 256° West 364 419 19,100 -1,860 Descending Denver Center
08:20AM 40.2117 -103.7961 255° West 360 414 17,600 -1,140 Descending Denver Center
08:21AM 40.2056 -103.9203 266° West 319 367 16,900 -960 Descending Denver Center
08:23AM 40.2178 -104.0386 278° West 328 377 15,700 -1,380 Descending Denver Center
08:24AM 40.2289 -104.1517 277° West 319 367 14,200 -1,500 Descending Denver Center
08:25AM 40.2375 -104.2586 276° West 304 350 12,700 -1,380 Descending Denver Center
08:26AM 40.1983 -104.3492 241° Southwest 288 331 11,400 -1,380 Descending Denver Center
08:27AM 40.1553 -104.4486 240° Southwest 294 338 9,900 -1,260 Descending Denver Center
08:28AM 40.1161 -104.5369 240° Southwest 283 326 8,900 -900 Descending Denver Center
08:29AM 40.0739 -104.6106 233° Southwest 251 289 8,200 -660 Descending Denver Center
08:30AM 40.0278 -104.6642 222° Southwest 223 257 7,600 -660 Descending Denver Center
08:31AM 39.9783 -104.6867 199° South 195 224 6,900 -780 Descending Denver Center
08:32AM 39.9333 -104.6861 179° South 162 186 6,100 -780 Descending Denver Center
08:33AM 39.8892 -104.6869 181° South 149 171 5,400 -720 Descending Denver Center